createdAt,value
2022-11-24T00:01:06.259Z,97963.25
2022-11-24T00:04:29.133Z,97958.45
2022-11-24T00:07:41.034Z,97965.75
2022-11-24T00:10:53.343Z,97960.94
2022-11-24T00:14:19.467Z,97963.36
2022-11-24T00:17:33.568Z,97979.35
2022-11-24T00:20:45.553Z,97985.31
2022-11-24T00:31:42.266Z,97986.34
2022-11-24T00:35:07.739Z,97993.16
2022-11-24T00:38:19.954Z,97999.53
2022-11-24T00:41:33.990Z,97996.19
2022-11-24T00:44:46.086Z,98003.06
2022-11-24T00:48:07.452Z,97998.80
2022-11-24T00:51:22.221Z,98003.73
2022-11-24T00:58:15.167Z,97996.48
2022-11-24T01:01:31.386Z,97996.91
2022-11-24T01:29:35.861Z,98016.25
2022-11-24T01:32:47.950Z,98020.63
2022-11-24T01:36:00.996Z,98019.59
2022-11-24T01:39:13.565Z,98019.19
2022-11-24T01:42:25.835Z,98013.23
2022-11-24T01:45:45.024Z,98013.96
2022-11-24T01:49:02.714Z,98018.56
2022-11-24T01:56:37.026Z,98021.48
2022-11-24T01:59:49.575Z,98025.78
2022-11-24T02:03:06.567Z,98031.94
2022-11-24T02:06:22.679Z,98038.23
2022-11-24T02:09:40.764Z,98046.62
2022-11-24T02:12:55.519Z,98047.66
2022-11-24T02:16:21.996Z,98040.33
2022-11-24T02:19:50.239Z,98046.15
2022-11-24T02:23:24.263Z,98038.63
2022-11-24T02:31:03.877Z,98051.00
2022-11-24T02:37:57.571Z,98049.44
2022-11-24T02:41:13.365Z,98043.27
2022-11-24T02:44:44.224Z,98047.25
2022-11-24T02:47:56.177Z,98049.75
2022-11-24T02:51:08.492Z,98045.36
2022-11-24T02:54:20.581Z,98054.98
2022-11-24T02:57:32.473Z,98055.94
2022-11-24T03:04:24.744Z,98050.41
2022-11-24T03:07:36.784Z,98058.03
2022-11-24T03:10:49.367Z,98056.98
2022-11-24T03:14:01.277Z,98050.61
2022-11-24T03:17:13.366Z,98050.61
2022-11-24T03:20:25.879Z,98045.14
2022-11-24T03:23:48.837Z,98049.34
2022-11-24T03:27:00.926Z,98052.49
2022-11-24T03:30:17.852Z,98045.99
2022-11-24T03:33:30.990Z,98048.72
2022-11-24T03:36:50.924Z,98058.03
2022-11-24T03:40:02.881Z,98057.19
2022-11-24T03:43:15.891Z,98055.42
2022-11-24T03:46:28.907Z,98054.27
2022-11-24T03:49:41.757Z,98060.23
2022-11-24T03:52:53.598Z,98062.73
2022-11-24T03:56:06.202Z,98072.25
2022-11-24T03:59:19.593Z,98070.48
2022-11-24T04:02:32.731Z,98069.02
2022-11-24T04:05:44.940Z,98060.23
2022-11-24T04:08:57.337Z,98073.20
2022-11-24T04:12:24.303Z,98079.48
2022-11-24T04:15:47.333Z,98079.48
2022-11-24T04:19:01.416Z,98089.95
2022-11-24T04:22:13.300Z,98086.83
2022-11-24T04:45:06.188Z,98097.08
2022-11-24T04:48:18.219Z,98101.66
2022-11-24T04:51:30.308Z,98098.97
2022-11-24T04:54:42.864Z,98103.13
2022-11-24T04:58:02.552Z,98103.75
2022-11-24T05:01:15.993Z,98103.13
2022-11-24T05:04:37.521Z,98109.43
2022-11-24T05:07:49.856Z,98115.48
2022-11-24T05:11:02.073Z,98120.71
2022-11-24T05:14:23.694Z,98119.79
2022-11-24T05:17:39.467Z,98115.81
2022-11-24T05:20:51.691Z,98112.35
2022-11-24T05:24:03.798Z,98113.27
2022-11-24T05:27:16.027Z,98117.77
2022-11-24T05:30:29.233Z,98118.84
2022-11-24T05:33:43.473Z,98126.77
2022-11-24T05:37:00.761Z,98121.64
2022-11-24T05:40:14.225Z,98121.75
2022-11-24T05:47:06.526Z,98136.70
2022-11-24T05:50:22.821Z,98141.20
2022-11-24T05:53:34.823Z,98147.17
2022-11-24T05:56:46.904Z,98153.98
2022-11-24T05:59:59.235Z,98148.76
2022-11-24T06:03:23.401Z,98155.65
2022-11-24T06:06:35.547Z,98154.80
2022-11-24T06:09:48.690Z,98156.50
2022-11-24T06:13:02.263Z,98163.61
2022-11-24T06:16:15.095Z,98156.50
2022-11-24T06:19:28.018Z,98166.11
2022-11-24T06:22:40.242Z,98167.36
2022-11-24T06:25:52.441Z,98175.21
2022-11-24T06:29:05.457Z,98167.55
2022-11-24T06:32:17.680Z,98171.12
2022-11-24T06:35:29.671Z,98169.34
2022-11-24T06:38:42.606Z,98175.31
2022-11-24T06:41:57.187Z,98182.03
2022-11-24T06:45:10.244Z,98180.96
2022-11-24T06:48:22.177Z,98174.59
2022-11-24T06:51:34.479Z,98184.13
2022-11-24T06:54:46.779Z,98185.61
2022-11-24T06:57:59.059Z,98194.72
2022-11-24T07:01:11.043Z,98195.12
2022-11-24T07:04:23.359Z,98197.73
2022-11-24T07:07:35.254Z,98206.54
2022-11-24T07:10:47.725Z,98209.89
2022-11-24T07:14:00.245Z,98215.31
2022-11-24T07:17:12.675Z,98208.13
2022-11-24T07:20:25.258Z,98215.97
2022-11-24T07:23:37.975Z,98218.66
2022-11-24T07:26:49.829Z,98225.77
2022-11-24T07:30:01.781Z,98222.64
2022-11-24T07:33:13.767Z,98231.41
2022-11-24T07:36:26.226Z,98224.30
2022-11-24T07:39:38.392Z,98226.63
2022-11-24T07:42:50.297Z,98220.76
2022-11-24T07:46:03.162Z,98218.43
2022-11-24T07:49:15.094Z,98215.82
2022-11-24T07:52:27.193Z,98217.19
2022-11-24T07:55:39.018Z,98225.77
2022-11-24T07:58:53.026Z,98223.08
2022-11-24T08:02:04.933Z,98225.59
2022-11-24T08:05:17.551Z,98228.39
2022-11-24T08:08:31.738Z,98233.33
2022-11-24T08:11:43.615Z,98239.20
2022-11-24T08:14:56.720Z,98239.83
2022-11-24T08:18:10.609Z,98241.29
2022-11-24T08:21:23.613Z,98248.00
2022-11-24T08:24:36.000Z,98245.56
2022-11-24T08:27:48.184Z,98243.91
2022-11-24T08:31:07.588Z,98248.84
2022-11-24T08:34:19.829Z,98247.67
2022-11-24T08:37:31.655Z,98250.41
2022-11-24T08:40:43.655Z,98258.07
2022-11-24T08:43:56.246Z,98255.74
2022-11-24T08:47:08.718Z,98254.55
2022-11-24T08:50:21.373Z,98260.45
2022-11-24T08:53:33.125Z,98257.91
2022-11-24T08:56:45.201Z,98259.50
2022-11-24T08:59:56.980Z,98262.86
2022-11-24T09:03:08.780Z,98258.25
2022-11-24T09:06:23.085Z,98263.48
2022-11-24T09:09:35.421Z,98265.47
2022-11-24T09:12:47.420Z,98262.67
2022-11-24T09:15:59.215Z,98268.53
2022-11-24T09:19:12.801Z,98266.11
2022-11-24T09:22:24.675Z,98267.91
2022-11-24T09:25:36.688Z,98270.41
2022-11-24T09:28:50.239Z,98266.00
2022-11-24T09:32:06.757Z,98275.09
2022-11-24T09:35:17.090Z,98265.58
2022-11-24T09:38:29.287Z,98265.58
2022-11-24T09:42:07.375Z,98262.01
2022-11-24T09:46:04.045Z,98271.66
2022-11-24T09:48:55.343Z,98264.63
2022-11-24T09:52:08.290Z,98273.32
2022-11-24T09:55:37.765Z,98270.81
2022-11-24T09:58:53.391Z,98269.12
2022-11-24T10:02:06.213Z,98264.09
2022-11-24T10:05:20.346Z,98275.88
2022-11-24T10:08:49.872Z,98279.16
2022-11-24T10:12:10.584Z,98272.13
2022-11-24T10:15:42.396Z,98272.87
2022-11-24T10:19:05.281Z,98273.43
2022-11-24T10:22:31.537Z,98276.89
2022-11-24T10:25:51.325Z,98271.66
2022-11-24T10:29:03.631Z,98268.20
2022-11-24T10:32:22.083Z,98271.23
2022-11-24T10:35:41.258Z,98276.05
2022-11-24T10:39:00.603Z,98275.02
2022-11-24T10:42:22.516Z,98270.99
2022-11-24T10:45:37.650Z,98273.95
2022-11-24T10:48:53.921Z,98271.05
2022-11-24T10:52:16.695Z,98276.17
2022-11-24T10:55:28.634Z,98269.80
2022-11-24T10:58:42.888Z,98277.52
2022-11-24T11:01:55.083Z,98278.95
2022-11-24T11:05:35.256Z,98277.81
2022-11-24T11:08:47.751Z,98273.43
2022-11-24T11:12:10.010Z,98276.89
2022-11-24T11:15:36.248Z,98270.99
2022-11-24T11:18:52.311Z,98266.50
2022-11-24T11:22:10.886Z,98269.97
2022-11-24T11:25:34.028Z,98264.09
2022-11-24T11:28:45.819Z,98267.24
2022-11-24T11:35:26.942Z,98272.47
2022-11-24T11:38:43.417Z,98270.07
2022-11-24T11:42:03.020Z,98273.72
2022-11-24T11:45:21.386Z,98281.06
2022-11-24T11:48:43.635Z,98277.63
2022-11-24T11:52:05.588Z,98282.94
2022-11-24T11:55:49.684Z,98274.06
2022-11-24T11:59:40.688Z,98277.42
2022-11-24T12:03:36.188Z,98273.14
2022-11-24T12:07:03.553Z,98263.70
2022-11-24T12:10:25.733Z,98275.64
2022-11-24T12:14:07.738Z,98272.92
2022-11-24T12:17:25.622Z,98271.45
2022-11-24T12:20:57.194Z,98280.25
2022-11-24T12:24:15.785Z,98279.93
2022-11-24T12:27:38.306Z,98276.57
2022-11-24T12:30:56.762Z,98279.19
2022-11-24T12:34:27.688Z,98280.44
2022-11-24T12:37:58.522Z,98281.06
2022-11-24T12:41:43.715Z,98282.94
2022-11-24T12:45:22.702Z,98283.78
2022-11-24T12:48:47.446Z,98283.89
2022-11-24T12:52:04.223Z,98290.05
2022-11-24T12:55:25.489Z,98292.67
2022-11-24T12:58:45.739Z,98298.11
2022-11-24T13:02:06.762Z,98297.16
2022-11-24T13:05:29.594Z,98296.98
2022-11-24T13:08:44.029Z,98302.39
2022-11-24T13:12:02.131Z,98301.65
2022-11-24T13:15:44.657Z,98301.65
2022-11-24T13:18:56.007Z,98311.83
2022-11-24T13:22:28.921Z,98303.98
2022-11-24T13:25:42.290Z,98313.53
2022-11-24T13:29:18.310Z,98309.77
2022-11-24T13:33:06.358Z,98319.39
2022-11-24T13:37:31.168Z,98326.39
2022-11-24T13:41:06.281Z,98338.00
2022-11-24T13:44:33.315Z,98333.61
2022-11-24T13:47:50.481Z,98350.55
2022-11-24T13:51:28.608Z,98347.86
2022-11-24T13:54:41.133Z,98362.16
2022-11-24T13:57:55.726Z,98365.27
2022-11-24T14:01:22.393Z,98369.81
2022-11-24T14:04:37.399Z,98375.72
2022-11-24T14:07:51.300Z,98377.13
2022-11-24T14:11:06.255Z,98389.72
2022-11-24T14:14:27.058Z,98395.05
2022-11-24T14:17:40.883Z,98393.19
2022-11-24T14:20:52.958Z,98401.95
2022-11-24T14:24:08.375Z,98408.23
2022-11-24T14:27:24.550Z,98417.73
2022-11-24T14:30:36.615Z,98422.42
2022-11-24T14:33:48.525Z,98415.13
2022-11-24T14:37:02.011Z,98422.97
2022-11-24T14:40:47.012Z,98433.26
2022-11-24T14:44:17.193Z,98430.54
2022-11-24T14:47:36.266Z,98428.67
2022-11-24T14:50:48.557Z,98436.04
2022-11-24T14:54:04.090Z,98440.52
2022-11-24T14:57:36.355Z,98444.08
2022-11-24T15:00:48.115Z,98444.08
2022-11-24T15:07:37.353Z,98455.46
2022-11-24T15:10:49.820Z,98462.94
2022-11-24T15:14:01.838Z,98470.30
2022-11-24T15:17:13.786Z,98473.76
2022-11-24T15:20:32.084Z,98478.44
2022-11-24T15:23:45.766Z,98483.47
2022-11-24T15:27:05.557Z,98480.46
2022-11-24T15:30:20.380Z,98494.13
2022-11-24T15:33:33.083Z,98495.78
2022-11-24T15:36:45.039Z,98504.38
2022-11-24T15:39:58.584Z,98503.23
2022-11-24T15:43:30.412Z,98502.68
2022-11-24T15:46:42.698Z,98502.03
2022-11-24T15:49:55.236Z,98505.85
2022-11-24T15:53:10.219Z,98504.84
2022-11-24T15:56:31.567Z,98504.48
2022-11-24T15:59:44.888Z,98501.73
2022-11-24T16:03:00.052Z,98513.70
2022-11-24T16:06:23.772Z,98517.61
2022-11-24T16:09:31.903Z,98517.41
2022-11-24T16:12:44.787Z,98523.40
2022-11-24T16:15:57.689Z,98526.02
2022-11-24T16:19:10.977Z,98530.33
2022-11-24T16:22:24.561Z,98527.52
2022-11-24T16:25:38.312Z,98530.98
2022-11-24T16:28:53.670Z,98534.14
2022-11-24T16:32:07.037Z,98534.50
2022-11-24T16:35:20.151Z,98542.75
2022-11-24T16:38:32.431Z,98542.00
2022-11-24T16:41:44.740Z,98547.22
2022-11-24T16:44:57.315Z,98550.02
2022-11-24T16:48:09.965Z,98546.84
2022-11-24T16:51:24.497Z,98557.45
2022-11-24T16:54:37.862Z,98563.53
2022-11-24T16:57:51.361Z,98559.16
2022-11-24T17:01:10.837Z,98561.77
2022-11-24T17:04:24.284Z,98572.03
2022-11-24T17:07:37.690Z,98565.52
2022-11-24T17:10:50.274Z,98566.02
2022-11-24T17:14:04.208Z,98576.16
2022-11-24T17:17:19.237Z,98577.91
2022-11-24T17:20:33.458Z,98581.38
2022-11-24T17:23:48.417Z,98581.03
2022-11-24T17:27:02.613Z,98582.36
2022-11-24T17:30:20.221Z,98581.35
2022-11-24T17:33:35.545Z,98578.23
2022-11-24T17:36:48.404Z,98594.52
2022-11-24T17:40:26.970Z,98593.22
2022-11-24T17:43:15.045Z,98592.97
2022-11-24T17:46:27.916Z,98591.20
2022-11-24T17:49:40.376Z,98597.69
2022-11-24T17:52:52.295Z,98607.17
2022-11-24T17:56:06.744Z,98609.78
2022-11-24T17:59:18.968Z,98612.20
2022-11-24T18:02:30.992Z,98618.19
2022-11-24T18:05:44.891Z,98622.32
2022-11-24T18:08:58.064Z,98621.22
2022-11-24T18:12:10.958Z,98618.60
2022-11-24T18:15:23.155Z,98632.27
2022-11-24T18:18:40.036Z,98633.03
2022-11-24T18:21:49.839Z,98641.03
2022-11-24T18:25:02.049Z,98635.48
2022-11-24T18:28:14.231Z,98645.09
2022-11-24T18:31:26.430Z,98645.94
2022-11-24T18:34:38.657Z,98643.57
2022-11-24T18:37:51.066Z,98644.52
2022-11-24T18:41:05.234Z,98650.50
2022-11-24T18:44:17.407Z,98650.31
2022-11-24T18:47:29.326Z,98648.11
2022-11-24T18:50:41.368Z,98651.33
2022-11-24T18:53:58.294Z,98651.33
2022-11-24T18:57:08.551Z,98651.99
2022-11-24T19:00:22.041Z,98655.17
2022-11-24T19:03:33.931Z,98658.55
2022-11-24T19:06:46.731Z,98667.84
2022-11-24T19:09:58.704Z,98651.74
2022-11-24T19:13:10.723Z,98667.65
2022-11-24T19:16:24.426Z,98671.02
2022-11-24T19:19:37.301Z,98678.86
2022-11-24T19:22:49.231Z,98675.34
2022-11-24T19:26:01.162Z,98678.96
2022-11-24T19:29:14.146Z,98678.96
2022-11-24T19:32:26.077Z,98685.11
2022-11-24T19:35:38.083Z,98683.34
2022-11-24T19:38:54.448Z,98684.34
2022-11-24T19:42:06.403Z,98688.66
2022-11-24T19:45:18.935Z,98695.66
2022-11-24T19:48:39.924Z,98697.36
2022-11-24T19:51:52.054Z,98705.27
2022-11-24T19:55:03.922Z,98699.97
2022-11-24T19:58:15.979Z,98705.27
2022-11-24T20:01:30.195Z,98703.50
2022-11-24T20:04:43.066Z,98713.05
2022-11-24T20:07:55.166Z,98712.20
2022-11-24T20:11:13.312Z,98709.67
2022-11-24T20:14:26.028Z,98719.19
2022-11-24T20:17:37.925Z,98723.42
2022-11-24T20:20:49.887Z,98719.09
2022-11-24T20:24:04.216Z,98723.42
2022-11-24T20:27:16.186Z,98737.34
2022-11-24T20:30:28.201Z,98742.58
2022-11-24T20:33:42.681Z,98743.48
2022-11-24T20:36:56.868Z,98744.58
2022-11-24T20:40:09.995Z,98751.52
2022-11-24T20:43:21.930Z,98753.19
2022-11-24T20:46:36.406Z,98749.81
2022-11-24T20:49:48.282Z,98754.89
2022-11-24T20:53:00.754Z,98760.03
2022-11-24T20:56:16.003Z,98754.89
2022-11-24T20:59:29.671Z,98760.12
2022-11-24T21:02:41.203Z,98767.20
2022-11-24T21:05:53.327Z,98765.50
2022-11-24T21:09:05.375Z,98775.11
2022-11-24T21:12:17.424Z,98774.11
2022-11-24T21:15:29.688Z,98768.88
2022-11-24T21:18:42.358Z,98763.98
2022-11-24T21:21:54.601Z,98778.67
2022-11-24T21:25:06.272Z,98774.29
2022-11-24T21:28:18.258Z,98772.59
2022-11-24T21:31:30.454Z,98778.16
2022-11-24T21:34:42.207Z,98779.00
2022-11-24T21:37:54.100Z,98786.17
2022-11-24T21:41:09.630Z,98791.50
2022-11-24T21:44:22.012Z,98787.84
2022-11-24T21:47:34.282Z,98798.21
2022-11-24T21:50:45.964Z,98797.21
2022-11-24T21:53:58.113Z,98808.44
2022-11-24T21:57:10.141Z,98797.98
2022-11-24T22:00:25.069Z,98809.20
2022-11-24T22:03:36.878Z,98804.63
2022-11-24T22:06:48.743Z,98811.57
2022-11-24T22:10:00.879Z,98805.34
2022-11-24T22:13:12.820Z,98807.77
2022-11-24T22:16:26.583Z,98809.47
2022-11-24T22:19:38.468Z,98810.23
2022-11-24T22:22:50.176Z,98813.61
2022-11-24T22:26:01.963Z,98813.76
2022-11-24T22:29:13.971Z,98817.14
2022-11-24T22:32:25.663Z,98811.91
2022-11-24T22:35:37.545Z,98817.31
2022-11-24T22:38:50.362Z,98820.94
2022-11-24T22:42:02.457Z,98828.78
2022-11-24T22:45:16.945Z,98829.88
2022-11-24T22:48:28.636Z,98832.64
2022-11-24T22:51:43.736Z,98834.43
2022-11-24T22:54:55.869Z,98831.97
2022-11-24T22:58:07.735Z,98840.75
2022-11-24T23:01:22.135Z,98837.38
2022-11-24T23:04:34.197Z,98844.45
2022-11-24T23:07:46.287Z,98840.05
2022-11-24T23:11:04.222Z,98846.13
2022-11-24T23:14:20.479Z,98845.28
2022-11-24T23:17:32.268Z,98846.98
2022-11-24T23:20:44.959Z,98853.21
2022-11-24T23:23:58.323Z,98846.13
2022-11-24T23:27:10.277Z,98849.69
2022-11-24T23:30:22.427Z,98851.53
2022-11-24T23:33:34.287Z,98853.21
2022-11-24T23:36:46.382Z,98835.23
2022-11-24T23:39:58.022Z,98846.31
2022-11-24T23:43:09.689Z,98850.50
2022-11-24T23:46:23.893Z,98843.52
2022-11-24T23:49:36.327Z,98848.66
2022-11-24T23:52:48.214Z,98847.66
2022-11-24T23:56:03.345Z,98840.75
2022-11-24T23:59:18.935Z,98849.42
